Time;durP1;ratioP1;P1;durP2;ratioP2;P2;SDS_P1;SDS_P2;PMS_P1;PMS_P2;Temp;Humidity;BMP_temperature;BMP_pressure;BME280_temperature;BME280_humidity;BME280_pressure;Samples;Min_cycle;Max_cycle;Signal;HPM_P1;HPM_P2
2022/10/22 00:01:32;;;;;;;;;;;16.40;86.80;;;;;;5072846;28;20288;-90
2022/10/22 00:03:58;;;;;;;;;;;16.40;86.70;;;;;;5072776;28;19939;-89
2022/10/22 00:06:23;;;;;;;;;;;16.40;86.70;;;;;;5072767;28;20338;-90
2022/10/22 00:08:49;;;;;;;;;;;16.40;87.40;;;;;;5072721;28;19949;-90
2022/10/22 00:11:16;;;;;;;;;;;16.30;87.50;;;;;;5072767;28;19985;-90
2022/10/22 00:13:41;;;;;;;;;;;16.30;87.70;;;;;;5072737;28;20428;-90
2022/10/22 00:16:07;;;;;;;;;;;16.30;87.90;;;;;;5072377;28;19993;-90
2022/10/22 00:18:33;;;;;;;;;;;16.30;87.70;;;;;;5072995;28;19953;-90
2022/10/22 00:20:59;;;;;;;;;;;16.40;87.30;;;;;;5054852;28;19937;-90
2022/10/22 00:23:24;;;;;;;;;;;16.40;87.00;;;;;;5072840;28;19970;-90
2022/10/22 00:25:51;;;;;;;;;;;16.40;86.90;;;;;;5072525;28;19960;-90
2022/10/22 00:28:17;;;;;;;;;;;16.40;86.90;;;;;;5072434;28;20028;-90
2022/10/22 00:30:42;;;;;;;;;;;16.40;87.00;;;;;;5072626;28;19940;-90
2022/10/22 00:33:08;;;;;;;;;;;16.40;87.10;;;;;;5072575;28;19945;-89
2022/10/22 00:35:33;;;;;;;;;;;16.50;87.30;;;;;;5072558;28;19941;-90
2022/10/22 00:37:59;;;;;;;;;;;16.50;87.30;;;;;;5072505;28;19942;-90
2022/10/22 00:40:24;;;;;;;;;;;16.40;87.40;;;;;;5072285;28;19943;-90
2022/10/22 00:42:50;;;;;;;;;;;16.50;87.30;;;;;;5072285;28;19944;-89
2022/10/22 00:45:25;;;;;;;;;;;16.60;87.20;;;;;;5074951;28;20429;-91
2022/10/22 00:47:58;;;;;;;;;;;16.60;87.10;;;;;;5076046;28;19991;-90
2022/10/22 00:50:45;;;;;;;;;;;16.70;86.80;;;;;;5075926;28;19993;-89
2022/10/22 00:53:15;;;;;;;;;;;16.70;86.80;;;;;;5075676;28;20422;-90
2022/10/22 00:55:42;;;;;;;;;;;16.80;86.90;;;;;;5075885;28;20414;-90
2022/10/22 00:58:08;;;;;;;;;;;16.80;86.90;;;;;;5075724;28;19948;-89
2022/10/22 01:00:34;;;;;;;;;;;16.80;86.90;;;;;;5076003;28;19950;-90
2022/10/22 01:03:00;;;;;;;;;;;16.80;86.80;;;;;;5075665;28;20279;-90
2022/10/22 01:05:27;;;;;;;;;;;16.80;86.80;;;;;;5075887;28;19968;-89
2022/10/22 01:07:53;;;;;;;;;;;16.80;86.90;;;;;;5075452;28;20288;-89
2022/10/22 01:10:21;;;;;;;;;;;16.80;87.20;;;;;;5075496;28;19952;-90
2022/10/22 01:13:07;;;;;;;;;;;16.70;87.40;;;;;;5075558;28;19939;-89
2022/10/22 01:15:47;;;;;;;;;;;16.70;87.50;;;;;;5075070;28;19949;-90
2022/10/22 01:18:27;;;;;;;;;;;16.70;87.60;;;;;;5075504;28;19943;-90
2022/10/22 01:21:03;;;;;;;;;;;16.70;87.60;;;;;;5057430;28;19950;-90
2022/10/22 01:23:35;;;;;;;;;;;16.70;87.70;;;;;;5075413;28;19944;-90
2022/10/22 01:26:03;;;;;;;;;;;16.70;87.70;;;;;;5075267;28;19958;-89
2022/10/22 01:28:51;;;;;;;;;;;16.70;87.90;;;;;;5075110;28;20062;-89
2022/10/22 01:31:17;;;;;;;;;;;16.70;87.90;;;;;;5075214;28;19942;-90
2022/10/22 01:33:44;;;;;;;;;;;16.70;87.90;;;;;;5075205;28;19938;-90
2022/10/22 01:36:10;;;;;;;;;;;16.60;87.90;;;;;;5074884;28;19950;-90
2022/10/22 01:38:37;;;;;;;;;;;16.60;88.10;;;;;;5074894;28;20327;-90
2022/10/22 01:41:02;;;;;;;;;;;16.70;88.30;;;;;;5075028;28;19949;-90
2022/10/22 01:43:28;;;;;;;;;;;16.70;88.60;;;;;;5074991;28;19989;-90
2022/10/22 01:45:56;;;;;;;;;;;16.70;88.70;;;;;;5074896;28;20137;-89
2022/10/22 01:48:33;;;;;;;;;;;16.70;88.80;;;;;;5074919;28;20022;-90
2022/10/22 01:51:18;;;;;;;;;;;16.70;89.00;;;;;;5074646;28;20448;-90
2022/10/22 01:53:55;;;;;;;;;;;16.70;89.10;;;;;;5074834;28;19980;-89
2022/10/22 01:56:35;;;;;;;;;;;16.80;89.30;;;;;;5074531;28;20436;-90
2022/10/22 01:59:05;;;;;;;;;;;16.80;89.30;;;;;;5074723;28;19975;-90
2022/10/22 02:01:40;;;;;;;;;;;16.80;88.70;;;;;;5074932;28;19934;-89
2022/10/22 02:04:41;;;;;;;;;;;16.80;88.70;;;;;;5074500;28;19996;-89
2022/10/22 02:07:10;;;;;;;;;;;16.80;89.00;;;;;;5028331;28;19940;-90
2022/10/22 02:09:37;;;;;;;;;;;16.80;89.40;;;;;;5066406;28;19945;-90
2022/10/22 02:12:05;;;;;;;;;;;16.80;89.50;;;;;;5074451;28;19944;-89
2022/10/22 02:14:31;;;;;;;;;;;16.70;89.80;;;;;;5074360;28;20397;-90
2022/10/22 02:16:58;;;;;;;;;;;16.80;89.90;;;;;;5074285;28;20377;-90
2022/10/22 02:19:26;;;;;;;;;;;16.80;89.90;;;;;;5074292;28;20443;-90
2022/10/22 02:21:52;;;;;;;;;;;16.80;89.90;;;;;;5074247;28;19939;-89
2022/10/22 02:24:18;;;;;;;;;;;16.80;89.90;;;;;;5074087;28;19967;-90
2022/10/22 02:26:56;;;;;;;;;;;16.80;89.80;;;;;;5074113;28;19941;-89
2022/10/22 02:29:28;;;;;;;;;;;16.80;89.60;;;;;;5073925;28;19983;-89
2022/10/22 02:31:55;;;;;;;;;;;16.80;89.60;;;;;;5074021;28;19997;-90
2022/10/22 02:34:22;;;;;;;;;;;16.80;89.80;;;;;;5073976;28;19946;-89
2022/10/22 02:36:49;;;;;;;;;;;16.80;89.80;;;;;;5073638;28;19947;-90
2022/10/22 02:39:15;;;;;;;;;;;16.90;89.80;;;;;;5073941;28;20041;-89
2022/10/22 02:41:41;;;;;;;;;;;16.90;89.80;;;;;;5073787;28;20303;-89
2022/10/22 02:44:08;;;;;;;;;;;16.90;89.70;;;;;;5073730;28;19943;-90
2022/10/22 02:46:34;;;;;;;;;;;16.90;89.70;;;;;;5073705;28;20397;-88
2022/10/22 02:48:59;;;;;;;;;;;17.00;89.70;;;;;;5073684;28;19946;-90
2022/10/22 02:51:25;;;;;;;;;;;17.00;89.60;;;;;;5073493;28;19955;-90
2022/10/22 02:53:50;;;;;;;;;;;17.00;89.50;;;;;;5073673;28;19938;-90
2022/10/22 02:56:16;;;;;;;;;;;17.00;89.50;;;;;;5073521;28;19990;-90
2022/10/22 02:58:41;;;;;;;;;;;17.00;89.50;;;;;;5073576;28;19942;-90
2022/10/22 03:01:07;;;;;;;;;;;17.10;89.50;;;;;;5073478;28;19938;-89
2022/10/22 03:03:32;;;;;;;;;;;17.10;89.50;;;;;;5073502;28;19992;-89
2022/10/22 03:05:58;;;;;;;;;;;17.20;89.20;;;;;;5073098;28;19964;-89
2022/10/22 03:08:23;;;;;;;;;;;17.20;88.90;;;;;;5072855;28;19979;-90
2022/10/22 03:10:49;;;;;;;;;;;17.20;89.00;;;;;;5073365;28;19939;-89
2022/10/22 03:13:14;;;;;;;;;;;17.10;89.10;;;;;;5073343;28;19947;-89
2022/10/22 03:15:40;;;;;;;;;;;17.10;89.30;;;;;;5073363;28;19943;-89
2022/10/22 03:18:05;;;;;;;;;;;17.10;89.30;;;;;;5073282;28;19942;-89
2022/10/22 03:20:31;;;;;;;;;;;17.10;89.40;;;;;;5073319;28;19944;-89
2022/10/22 03:22:56;;;;;;;;;;;17.00;89.50;;;;;;5073273;28;19944;-90
2022/10/22 03:25:24;;;;;;;;;;;17.10;89.60;;;;;;5073162;28;20380;-90
2022/10/22 03:27:51;;;;;;;;;;;17.10;89.80;;;;;;5073044;28;20022;-89
2022/10/22 03:30:17;;;;;;;;;;;17.00;89.90;;;;;;5073145;28;19974;-89
2022/10/22 03:32:42;;;;;;;;;;;17.00;90.10;;;;;;5073120;28;20317;-90
2022/10/22 03:35:08;;;;;;;;;;;17.00;90.30;;;;;;5072814;28;20046;-89
2022/10/22 03:37:34;;;;;;;;;;;17.00;90.50;;;;;;5073005;28;19941;-90
2022/10/22 03:40:01;;;;;;;;;;;17.00;90.60;;;;;;5073074;28;20422;-90
2022/10/22 03:42:26;;;;;;;;;;;17.10;90.80;;;;;;5072991;28;20036;-89
2022/10/22 03:44:52;;;;;;;;;;;17.00;90.90;;;;;;5072982;28;20058;-90
2022/10/22 03:47:17;;;;;;;;;;;17.00;91.20;;;;;;5072996;28;19977;-89
2022/10/22 03:49:43;;;;;;;;;;;17.00;91.30;;;;;;5072973;28;19937;-90
2022/10/22 03:52:10;;;;;;;;;;;17.00;91.40;;;;;;5072553;28;19950;-89
2022/10/22 03:54:36;;;;;;;;;;;17.00;91.50;;;;;;5072940;28;19946;-90
2022/10/22 03:57:02;;;;;;;;;;;17.00;91.60;;;;;;5051679;28;19954;-90
2022/10/22 03:59:27;;;;;;;;;;;17.00;91.60;;;;;;5052630;28;19938;-89
2022/10/22 04:01:53;;;;;;;;;;;17.10;91.80;;;;;;5052512;28;19937;-90
2022/10/22 04:04:18;;;;;;;;;;;17.10;91.80;;;;;;5052651;28;20415;-90
2022/10/22 04:06:44;;;;;;;;;;;17.10;91.90;;;;;;5071916;28;19954;-89
2022/10/22 04:09:09;;;;;;;;;;;17.10;92.00;;;;;;5072795;28;19944;-89
2022/10/22 04:11:35;;;;;;;;;;;17.10;91.80;;;;;;5072701;28;19940;-89
2022/10/22 04:14:00;;;;;;;;;;;17.10;91.70;;;;;;5072765;28;19942;-89
2022/10/22 04:16:31;;;;;;;;;;;17.10;91.30;;;;;;5072707;28;20025;-90
2022/10/22 04:18:56;;;;;;;;;;;17.10;91.20;;;;;;5055172;28;20341;-89
2022/10/22 04:21:22;;;;;;;;;;;17.10;91.10;;;;;;5076494;28;19937;-90
2022/10/22 04:23:49;;;;;;;;;;;17.10;91.30;;;;;;5076454;28;19946;-90
2022/10/22 04:26:15;;;;;;;;;;;17.10;91.40;;;;;;5076346;28;19967;-89
2022/10/22 04:28:40;;;;;;;;;;;17.10;91.60;;;;;;5076217;28;19972;-90
2022/10/22 04:31:07;;;;;;;;;;;17.10;91.60;;;;;;5076336;28;19941;-90
2022/10/22 04:33:32;;;;;;;;;;;17.10;91.70;;;;;;5076314;28;19938;-89
2022/10/22 04:35:58;;;;;;;;;;;17.20;91.70;;;;;;5075736;28;19942;-90
2022/10/22 04:38:23;;;;;;;;;;;17.20;91.50;;;;;;5075790;28;20305;-90
2022/10/22 04:40:49;;;;;;;;;;;17.20;91.50;;;;;;5076158;28;20372;-90
2022/10/22 04:43:14;;;;;;;;;;;17.20;91.60;;;;;;5058258;28;20462;-89
2022/10/22 04:45:40;;;;;;;;;;;17.20;91.60;;;;;;5076044;28;20069;-90
2022/10/22 04:48:06;;;;;;;;;;;17.20;91.70;;;;;;5076026;28;20035;-90
2022/10/22 04:50:31;;;;;;;;;;;17.30;91.60;;;;;;5058042;28;19946;-90
2022/10/22 04:52:57;;;;;;;;;;;17.30;91.60;;;;;;5075789;28;20056;-89
2022/10/22 04:55:22;;;;;;;;;;;17.30;91.60;;;;;;5075894;28;19946;-89
2022/10/22 04:57:48;;;;;;;;;;;17.30;91.50;;;;;;5075806;28;19949;-90
2022/10/22 05:00:15;;;;;;;;;;;17.30;91.50;;;;;;5076061;28;19940;-90
2022/10/22 05:02:43;;;;;;;;;;;17.30;91.50;;;;;;5075777;28;19945;-90
2022/10/22 05:05:09;;;;;;;;;;;17.20;91.50;;;;;;5075435;28;19964;-89
2022/10/22 05:07:34;;;;;;;;;;;17.20;91.70;;;;;;5075495;28;20002;-89
2022/10/22 05:10:01;;;;;;;;;;;17.10;91.80;;;;;;5075129;28;20003;-90
2022/10/22 05:12:28;;;;;;;;;;;17.20;91.90;;;;;;5074967;28;19947;-91
2022/10/22 05:14:54;;;;;;;;;;;17.20;91.80;;;;;;5074955;28;20049;-90
2022/10/22 05:17:20;;;;;;;;;;;17.20;92.10;;;;;;5075500;28;20032;-90
2022/10/22 05:19:45;;;;;;;;;;;17.20;92.30;;;;;;5075539;28;19986;-90
2022/10/22 05:22:11;;;;;;;;;;;17.20;92.50;;;;;;5075519;28;19940;-91
2022/10/22 05:24:37;;;;;;;;;;;17.20;92.60;;;;;;5074888;28;19963;-90
2022/10/22 05:27:02;;;;;;;;;;;17.20;92.70;;;;;;5074620;28;20007;-90
2022/10/22 05:29:28;;;;;;;;;;;17.20;92.80;;;;;;5070785;28;20074;-90
2022/10/22 05:31:53;;;;;;;;;;;17.30;92.90;;;;;;5074862;28;19953;-90
2022/10/22 05:34:19;;;;;;;;;;;17.20;92.90;;;;;;5075002;28;20359;-91
2022/10/22 05:36:45;;;;;;;;;;;17.30;92.90;;;;;;5074697;28;20349;-90
2022/10/22 05:39:10;;;;;;;;;;;17.30;92.90;;;;;;5074758;28;20409;-90
2022/10/22 05:41:36;;;;;;;;;;;17.30;92.90;;;;;;5074887;28;19945;-90
2022/10/22 05:44:02;;;;;;;;;;;17.30;92.80;;;;;;5073632;28;19971;-89
2022/10/22 05:46:29;;;;;;;;;;;17.30;92.80;;;;;;5074901;28;19983;-90
2022/10/22 05:48:59;;;;;;;;;;;17.30;92.90;;;;;;5075121;28;20010;-90
2022/10/22 05:51:26;;;;;;;;;;;17.40;93.10;;;;;;5074809;28;19961;-90
2022/10/22 05:53:55;;;;;;;;;;;17.30;93.10;;;;;;5073871;28;19940;-90
2022/10/22 05:56:21;;;;;;;;;;;17.30;93.10;;;;;;5074991;28;19942;-90
2022/10/22 05:58:47;;;;;;;;;;;17.30;93.10;;;;;;5055843;28;19939;-90
2022/10/22 06:01:13;;;;;;;;;;;17.30;93.10;;;;;;5056816;28;19943;-90
2022/10/22 06:03:39;;;;;;;;;;;17.40;93.10;;;;;;5073684;28;20324;-90
2022/10/22 06:06:11;;;;;;;;;;;17.40;93.10;;;;;;5055653;28;20429;-90
2022/10/22 06:08:37;;;;;;;;;;;17.40;93.10;;;;;;5021420;28;19944;-89
2022/10/22 06:11:02;;;;;;;;;;;17.40;93.00;;;;;;5072982;28;19947;-90
2022/10/22 06:13:28;;;;;;;;;;;17.50;92.90;;;;;;5073561;28;19963;-90
2022/10/22 06:15:53;;;;;;;;;;;17.50;92.90;;;;;;5064450;28;20031;-90
2022/10/22 06:18:19;;;;;;;;;;;17.50;92.80;;;;;;5056322;28;19952;-90
2022/10/22 06:20:46;;;;;;;;;;;17.60;92.80;;;;;;5074023;28;19950;-90
2022/10/22 06:23:12;;;;;;;;;;;17.50;92.70;;;;;;5054144;28;20039;-90
2022/10/22 06:25:37;;;;;;;;;;;17.50;92.70;;;;;;5070939;28;20077;-90
2022/10/22 06:28:03;;;;;;;;;;;17.50;92.70;;;;;;5085031;22;20380;-90
2022/10/22 06:30:28;;;;;;;;;;;17.60;92.60;;;;;;5112480;28;19984;-90
2022/10/22 06:32:54;;;;;;;;;;;17.60;92.60;;;;;;5087389;28;19993;-90
2022/10/22 06:35:21;;;;;;;;;;;17.60;92.60;;;;;;5093538;28;22044;-90
2022/10/22 06:37:46;;;;;;;;;;;17.60;92.70;;;;;;5113906;28;19938;-90
2022/10/22 06:40:12;;;;;;;;;;;17.60;92.80;;;;;;5114460;28;19940;-91
2022/10/22 06:42:38;;;;;;;;;;;17.60;92.80;;;;;;5112759;28;19990;-90
2022/10/22 06:45:03;;;;;;;;;;;17.80;92.60;;;;;;5111344;28;19967;-90
2022/10/22 06:47:32;;;;;;;;;;;17.80;92.30;;;;;;5110539;28;20424;-90
2022/10/22 06:49:57;;;;;;;;;;;17.80;92.40;;;;;;5095520;28;20377;-89
2022/10/22 06:52:23;;;;;;;;;;;17.80;92.40;;;;;;5113380;28;20064;-91
2022/10/22 06:54:49;;;;;;;;;;;17.80;92.20;;;;;;5113689;28;19994;-90
2022/10/22 06:57:14;;;;;;;;;;;17.90;92.00;;;;;;5096501;28;20009;-90
2022/10/22 06:59:40;;;;;;;;;;;17.90;91.90;;;;;;5113896;28;19943;-90
2022/10/22 07:02:05;;;;;;;;;;;18.00;91.70;;;;;;5113016;28;20300;-91
2022/10/22 07:04:31;;;;;;;;;;;18.00;91.60;;;;;;5113038;28;20298;-91
2022/10/22 07:06:56;;;;;;;;;;;18.00;91.50;;;;;;5113351;28;19946;-90
2022/10/22 07:09:22;;;;;;;;;;;18.00;91.50;;;;;;5102082;28;20206;-90
2022/10/22 07:11:47;;;;;;;;;;;18.00;91.40;;;;;;5113583;28;19946;-90
2022/10/22 07:14:13;;;;;;;;;;;18.00;91.40;;;;;;5112609;28;20476;-91
2022/10/22 07:16:41;;;;;;;;;;;18.10;91.40;;;;;;5113288;28;19948;-90
2022/10/22 07:19:07;;;;;;;;;;;18.00;91.30;;;;;;5109047;28;19992;-90
2022/10/22 07:21:33;;;;;;;;;;;18.10;91.20;;;;;;5113231;28;20463;-90
2022/10/22 07:23:59;;;;;;;;;;;18.10;91.10;;;;;;5112831;28;19949;-90
2022/10/22 07:26:27;;;;;;;;;;;18.10;91.00;;;;;;5113441;28;20024;-91
2022/10/22 07:28:52;;;;;;;;;;;18.10;90.90;;;;;;5112033;28;19975;-90
2022/10/22 07:31:18;;;;;;;;;;;18.20;90.80;;;;;;5113493;28;19949;-90
2022/10/22 07:33:44;;;;;;;;;;;18.20;90.70;;;;;;5113493;28;19937;-89
2022/10/22 07:36:11;;;;;;;;;;;18.20;90.70;;;;;;5094103;28;19942;-91
2022/10/22 07:38:36;;;;;;;;;;;18.20;90.60;;;;;;5113414;28;19941;-90
2022/10/22 07:41:03;;;;;;;;;;;18.30;90.50;;;;;;5113495;28;19948;-89
2022/10/22 07:43:28;;;;;;;;;;;18.30;90.40;;;;;;5113632;28;19949;-90
2022/10/22 07:45:54;;;;;;;;;;;18.30;90.30;;;;;;5113760;28;19969;-90
2022/10/22 07:48:20;;;;;;;;;;;18.40;90.10;;;;;;5113957;28;19944;-90
2022/10/22 07:50:48;;;;;;;;;;;18.40;90.20;;;;;;5113602;28;19947;-89
2022/10/22 07:53:13;;;;;;;;;;;18.60;89.90;;;;;;5114800;28;19943;-88
2022/10/22 07:55:39;;;;;;;;;;;18.70;89.50;;;;;;5118093;28;19963;-88
2022/10/22 07:58:04;;;;;;;;;;;18.80;89.60;;;;;;5099268;28;19946;-88
2022/10/22 08:00:30;;;;;;;;;;;18.90;89.50;;;;;;5117718;28;20276;-88
2022/10/22 08:02:55;;;;;;;;;;;19.10;89.20;;;;;;5118044;28;19940;-89
2022/10/22 08:05:21;;;;;;;;;;;19.10;88.50;;;;;;5117789;28;20016;-89
2022/10/22 08:07:46;;;;;;;;;;;19.20;88.30;;;;;;5117868;28;19942;-89
2022/10/22 08:10:12;;;;;;;;;;;19.30;88.00;;;;;;5117800;28;20004;-89
2022/10/22 08:12:38;;;;;;;;;;;19.30;87.70;;;;;;5117702;28;19940;-90
2022/10/22 08:15:04;;;;;;;;;;;19.40;87.30;;;;;;5117613;28;19937;-89
2022/10/22 08:17:29;;;;;;;;;;;19.50;86.90;;;;;;5117442;28;20395;-90
2022/10/22 08:19:55;;;;;;;;;;;19.50;86.40;;;;;;5117429;28;19948;-88
2022/10/22 08:22:20;;;;;;;;;;;19.50;86.50;;;;;;5116778;28;19946;-88
2022/10/22 08:24:46;;;;;;;;;;;19.50;86.30;;;;;;5117138;28;19970;-89
2022/10/22 08:27:11;;;;;;;;;;;19.50;86.30;;;;;;5116827;28;19942;-89
2022/10/22 08:29:37;;;;;;;;;;;19.50;86.20;;;;;;5116826;28;19988;-88
2022/10/22 08:32:03;;;;;;;;;;;19.50;86.30;;;;;;5116981;28;19947;-89
2022/10/22 08:34:29;;;;;;;;;;;19.60;86.40;;;;;;5117041;28;19962;-89
2022/10/22 08:36:54;;;;;;;;;;;19.60;86.30;;;;;;5116632;28;19950;-89
2022/10/22 08:39:20;;;;;;;;;;;19.70;86.20;;;;;;5116948;28;19938;-88
2022/10/22 08:41:45;;;;;;;;;;;19.70;86.30;;;;;;5116964;28;20402;-88
2022/10/22 08:44:11;;;;;;;;;;;19.80;86.30;;;;;;5116887;28;19939;-88
2022/10/22 08:46:39;;;;;;;;;;;19.80;86.30;;;;;;5116557;28;19964;-89
2022/10/22 08:49:11;;;;;;;;;;;19.90;86.10;;;;;;5116789;28;20036;-88
2022/10/22 08:51:39;;;;;;;;;;;19.90;85.80;;;;;;5116467;28;20053;-89
2022/10/22 08:54:24;;;;;;;;;;;20.00;85.60;;;;;;5116715;28;19944;-88
2022/10/22 08:56:56;;;;;;;;;;;20.00;85.40;;;;;;5116370;28;20031;-88
2022/10/22 08:59:24;;;;;;;;;;;20.10;84.70;;;;;;5116368;28;19939;-89
2022/10/22 09:01:51;;;;;;;;;;;20.20;84.60;;;;;;5115282;28;20041;-89
2022/10/22 09:04:40;;;;;;;;;;;20.30;84.60;;;;;;5115629;28;19997;-88
2022/10/22 09:07:08;;;;;;;;;;;20.30;84.30;;;;;;5116261;28;19948;-89
2022/10/22 09:09:38;;;;;;;;;;;20.40;83.90;;;;;;5116448;28;19945;-89
2022/10/22 09:12:04;;;;;;;;;;;20.50;83.70;;;;;;5116157;28;19990;-89
2022/10/22 09:14:29;;;;;;;;;;;20.60;83.20;;;;;;5116357;28;19977;-89
2022/10/22 09:16:55;;;;;;;;;;;20.70;82.60;;;;;;5116001;28;19955;-88
2022/10/22 09:19:35;;;;;;;;;;;20.80;82.40;;;;;;5097775;28;19939;-89
2022/10/22 09:22:03;;;;;;;;;;;20.80;82.00;;;;;;5116302;28;19943;-89
2022/10/22 09:24:32;;;;;;;;;;;20.80;82.20;;;;;;5115874;28;19947;-88
2022/10/22 09:26:58;;;;;;;;;;;20.80;82.20;;;;;;5116467;28;20035;-88
2022/10/22 09:29:30;;;;;;;;;;;20.90;82.60;;;;;;5115656;28;20449;-88
2022/10/22 09:31:55;;;;;;;;;;;20.80;82.80;;;;;;5097753;28;20462;-88
2022/10/22 09:34:21;;;;;;;;;;;20.80;82.20;;;;;;5116184;28;19948;-88
2022/10/22 09:36:47;;;;;;;;;;;20.70;82.30;;;;;;5115479;28;20305;-88
2022/10/22 09:39:26;;;;;;;;;;;20.70;82.20;;;;;;5115618;28;19956;-88
2022/10/22 09:41:51;;;;;;;;;;;20.70;82.90;;;;;;5115840;28;20301;-88
2022/10/22 09:44:18;;;;;;;;;;;20.70;83.10;;;;;;5115461;28;19949;-88
2022/10/22 09:46:44;;;;;;;;;;;20.70;83.00;;;;;;5115622;28;20407;-88
2022/10/22 09:49:12;;;;;;;;;;;20.70;83.50;;;;;;5115750;28;19949;-88
2022/10/22 09:51:40;;;;;;;;;;;20.60;83.80;;;;;;5107056;28;19959;-88
2022/10/22 09:54:21;;;;;;;;;;;20.60;84.00;;;;;;5113488;28;20101;-88
2022/10/22 09:57:07;;;;;;;;;;;20.60;84.20;;;;;;5113632;28;19942;-89
2022/10/22 09:59:35;;;;;;;;;;;20.60;84.80;;;;;;5097903;28;19941;-88
2022/10/22 10:02:12;;;;;;;;;;;20.80;85.10;;;;;;5114140;28;19974;-88
2022/10/22 10:04:45;;;;;;;;;;;20.80;85.10;;;;;;5115116;28;19961;-88
2022/10/22 10:07:14;;;;;;;;;;;20.90;84.50;;;;;;5114905;28;19967;-89
2022/10/22 10:09:40;;;;;;;;;;;21.00;84.10;;;;;;5110713;28;19946;-89
2022/10/22 10:12:11;;;;;;;;;;;21.00;84.50;;;;;;5115161;28;19953;-89
2022/10/22 10:14:37;;;;;;;;;;;21.00;85.10;;;;;;5114660;28;19949;-88
2022/10/22 10:17:21;;;;;;;;;;;21.10;85.50;;;;;;5115052;28;19943;-88
2022/10/22 10:20:07;;;;;;;;;;;21.10;85.20;;;;;;5115105;28;19989;-89
2022/10/22 10:22:32;;;;;;;;;;;21.00;84.90;;;;;;5114239;28;19944;-88
2022/10/22 10:25:13;;;;;;;;;;;21.00;84.80;;;;;;5114877;28;20315;-88
2022/10/22 10:27:40;;;;;;;;;;;21.20;84.90;;;;;;5115028;28;19945;-89
2022/10/22 10:30:16;;;;;;;;;;;21.30;84.90;;;;;;5114440;28;19975;-88
2022/10/22 10:33:01;;;;;;;;;;;21.20;84.20;;;;;;5114733;28;19960;-88
2022/10/22 10:35:29;;;;;;;;;;;21.30;83.80;;;;;;5114709;28;19940;-88
2022/10/22 10:38:13;;;;;;;;;;;21.30;83.30;;;;;;5114518;28;19939;-88
2022/10/22 10:40:49;;;;;;;;;;;21.40;82.90;;;;;;5114604;28;19939;-88
2022/10/22 10:43:18;;;;;;;;;;;21.50;81.40;;;;;;5114512;28;19987;-88
2022/10/22 10:45:56;;;;;;;;;;;21.60;81.20;;;;;;5114516;28;19997;-89
2022/10/22 10:48:24;;;;;;;;;;;21.80;81.10;;;;;;5114594;28;20380;-89
2022/10/22 10:50:52;;;;;;;;;;;21.90;80.70;;;;;;5114122;28;19942;-88
2022/10/22 10:53:18;;;;;;;;;;;22.00;79.40;;;;;;5114415;28;20111;-88
2022/10/22 10:56:04;;;;;;;;;;;21.90;79.70;;;;;;5112683;28;20416;-88
2022/10/22 10:58:38;;;;;;;;;;;21.50;81.60;;;;;;5099749;28;19951;-88
2022/10/22 11:01:11;;;;;;;;;;;21.00;82.90;;;;;;5114229;28;19947;-88
2022/10/22 11:03:49;;;;;;;;;;;20.80;84.10;;;;;;5093881;28;19951;-88
2022/10/22 11:06:18;;;;;;;;;;;20.40;84.80;;;;;;5093578;28;20054;-88
2022/10/22 11:08:53;;;;;;;;;;;20.00;86.20;;;;;;5093969;28;19997;-88
2022/10/22 11:11:41;;;;;;;;;;;19.70;87.40;;;;;;5108734;28;19986;-88
2022/10/22 11:14:17;;;;;;;;;;;19.50;88.30;;;;;;5114337;28;19944;-88
2022/10/22 11:16:48;;;;;;;;;;;19.20;88.90;;;;;;5114125;28;19981;-88
2022/10/22 11:19:24;;;;;;;;;;;19.20;89.40;;;;;;5095765;28;19943;-88
2022/10/22 11:21:51;;;;;;;;;;;19.10;89.50;;;;;;5114099;28;19948;-89
2022/10/22 11:24:26;;;;;;;;;;;19.10;89.70;;;;;;5114084;28;19940;-88
2022/10/22 11:26:55;;;;;;;;;;;19.10;89.70;;;;;;5114108;28;19939;-88
2022/10/22 11:29:23;;;;;;;;;;;19.20;89.80;;;;;;5113172;28;20338;-88
2022/10/22 11:31:51;;;;;;;;;;;19.20;90.40;;;;;;5113876;28;19952;-89
2022/10/22 11:34:16;;;;;;;;;;;19.30;90.50;;;;;;5114283;28;20037;-88
2022/10/22 11:36:42;;;;;;;;;;;19.30;89.80;;;;;;5095609;28;20029;-88
2022/10/22 11:39:25;;;;;;;;;;;19.20;89.50;;;;;;5113972;28;20310;-89
2022/10/22 11:41:52;;;;;;;;;;;19.20;89.40;;;;;;5113844;28;19944;-89
2022/10/22 11:44:22;;;;;;;;;;;19.10;89.90;;;;;;5113801;28;19939;-88
2022/10/22 11:46:54;;;;;;;;;;;19.10;90.60;;;;;;5113732;28;20009;-88
2022/10/22 11:49:27;;;;;;;;;;;19.00;90.80;;;;;;5095533;28;20014;-88
2022/10/22 11:52:19;;;;;;;;;;;18.90;90.90;;;;;;5113584;28;20363;-88
2022/10/22 11:54:44;;;;;;;;;;;18.90;90.80;;;;;;5109642;28;19947;-88
2022/10/22 11:57:13;;;;;;;;;;;18.80;90.50;;;;;;5113694;28;19940;-88
2022/10/22 11:59:39;;;;;;;;;;;18.90;89.90;;;;;;5113804;28;19942;-88
2022/10/22 12:02:24;;;;;;;;;;;18.90;89.70;;;;;;5113339;28;19951;-89
2022/10/22 12:04:49;;;;;;;;;;;18.90;89.60;;;;;;5113185;28;20427;-88
2022/10/22 12:07:48;;;;;;;;;;;18.90;89.10;;;;;;5113579;28;19936;-88
2022/10/22 12:10:25;;;;;;;;;;;18.80;89.50;;;;;;5113652;28;20299;-88
2022/10/22 12:12:58;;;;;;;;;;;18.80;89.40;;;;;;5113506;28;19934;-89
2022/10/22 12:15:27;;;;;;;;;;;18.80;89.30;;;;;;5113544;28;19959;-88
2022/10/22 12:18:00;;;;;;;;;;;18.90;89.00;;;;;;5113599;28;20451;-89
2022/10/22 12:20:26;;;;;;;;;;;18.80;89.00;;;;;;5113448;28;19941;-88
2022/10/22 12:22:53;;;;;;;;;;;18.80;88.70;;;;;;5113746;28;19951;-89
2022/10/22 12:25:22;;;;;;;;;;;18.80;88.80;;;;;;5113282;28;20046;-88
2022/10/22 12:27:50;;;;;;;;;;;18.80;88.90;;;;;;5113188;28;20027;-89
2022/10/22 12:30:45;;;;;;;;;;;18.80;88.90;;;;;;5113503;28;19945;-88
2022/10/22 12:33:18;;;;;;;;;;;18.80;89.10;;;;;;5091595;28;19949;-88
2022/10/22 12:35:45;;;;;;;;;;;18.80;89.10;;;;;;5113370;28;20473;-88
2022/10/22 12:38:15;;;;;;;;;;;18.80;89.60;;;;;;5113687;28;19948;-88
2022/10/22 12:40:41;;;;;;;;;;;18.80;89.80;;;;;;5115193;28;19982;-88
2022/10/22 12:43:10;;;;;;;;;;;18.80;89.50;;;;;;5117298;28;19943;-89
2022/10/22 12:45:36;;;;;;;;;;;18.80;89.80;;;;;;5117419;28;19968;-89
2022/10/22 12:48:04;;;;;;;;;;;18.80;89.70;;;;;;5117084;28;19965;-88
2022/10/22 12:50:39;;;;;;;;;;;18.80;89.00;;;;;;5117079;28;20004;-88
2022/10/22 12:53:06;;;;;;;;;;;18.80;89.00;;;;;;5116828;28;19938;-88
2022/10/22 12:55:32;;;;;;;;;;;18.80;89.50;;;;;;5116906;28;19964;-89
2022/10/22 12:57:58;;;;;;;;;;;18.80;89.50;;;;;;5116980;28;19938;-89
2022/10/22 13:00:31;;;;;;;;;;;18.80;90.00;;;;;;5116733;28;19972;-88
2022/10/22 13:02:58;;;;;;;;;;;18.80;89.90;;;;;;5116890;28;19992;-88
2022/10/22 13:05:29;;;;;;;;;;;18.80;89.60;;;;;;5116800;28;20061;-89
2022/10/22 13:08:03;;;;;;;;;;;18.80;89.60;;;;;;5116807;28;20027;-89
2022/10/22 13:10:39;;;;;;;;;;;18.80;89.40;;;;;;5116690;28;19976;-89
2022/10/22 13:13:08;;;;;;;;;;;18.60;89.60;;;;;;5116567;28;19938;-88
2022/10/22 13:15:35;;;;;;;;;;;18.70;89.70;;;;;;5116606;28;20464;-88
2022/10/22 13:18:02;;;;;;;;;;;18.50;88.80;;;;;;5116449;28;19944;-88
2022/10/22 13:20:28;;;;;;;;;;;18.40;88.40;;;;;;5098134;28;20147;-88
2022/10/22 13:22:53;;;;;;;;;;;18.30;87.70;;;;;;5116361;28;20413;-88
2022/10/22 13:25:38;;;;;;;;;;;18.20;88.80;;;;;;5116264;28;19961;-88
2022/10/22 13:28:07;;;;;;;;;;;18.10;89.70;;;;;;5116068;28;19981;-88
2022/10/22 13:30:33;;;;;;;;;;;18.00;89.80;;;;;;5115992;28;19950;-88
2022/10/22 13:33:00;;;;;;;;;;;17.90;90.30;;;;;;5116196;28;19950;-88
2022/10/22 13:35:28;;;;;;;;;;;17.90;90.40;;;;;;5116061;28;20223;-88
2022/10/22 13:37:53;;;;;;;;;;;18.00;90.40;;;;;;5116241;28;20072;-88
2022/10/22 13:40:19;;;;;;;;;;;18.10;89.80;;;;;;5097073;28;20396;-88
2022/10/22 13:42:45;;;;;;;;;;;18.20;89.70;;;;;;5115641;28;20462;-89
2022/10/22 13:45:11;;;;;;;;;;;18.30;89.40;;;;;;5115843;28;19967;-88
2022/10/22 13:47:37;;;;;;;;;;;18.30;89.30;;;;;;5115784;28;20420;-88
2022/10/22 13:50:06;;;;;;;;;;;18.30;88.90;;;;;;5097065;28;20038;-88
2022/10/22 13:52:39;;;;;;;;;;;18.30;88.90;;;;;;5114654;28;20423;-88
2022/10/22 13:55:12;;;;;;;;;;;18.30;89.40;;;;;;5095322;28;19940;-88
2022/10/22 13:57:37;;;;;;;;;;;18.20;89.70;;;;;;5110369;28;19942;-88
2022/10/22 14:00:03;;;;;;;;;;;18.30;90.20;;;;;;5099197;28;19947;-88
2022/10/22 14:02:29;;;;;;;;;;;18.30;90.30;;;;;;5114154;28;19948;-88
2022/10/22 14:04:55;;;;;;;;;;;18.50;89.70;;;;;;5112737;28;20056;-88
2022/10/22 14:07:20;;;;;;;;;;;18.70;89.10;;;;;;5115229;28;19954;-89
2022/10/22 14:09:46;;;;;;;;;;;18.90;88.90;;;;;;5114747;28;19948;-89
2022/10/22 14:12:13;;;;;;;;;;;19.10;88.80;;;;;;5114826;28;20062;-88
2022/10/22 14:14:38;;;;;;;;;;;19.70;86.00;;;;;;5115221;28;19939;-88
2022/10/22 14:17:04;;;;;;;;;;;20.30;83.60;;;;;;5115042;28;19943;-88
2022/10/22 14:19:30;;;;;;;;;;;20.90;81.90;;;;;;5115490;28;19947;-89
2022/10/22 14:21:56;;;;;;;;;;;21.30;79.20;;;;;;5114872;28;20185;-89
2022/10/22 14:24:21;;;;;;;;;;;21.70;78.30;;;;;;5115485;28;19934;-89